Flight Track Log - Related Links

Times and Time Zones

All times are in EDT time to prevent confusion due to time zone crossing. See the ECJ21 flight status page for this flight to view local times or setup timezone preferences in your user account.

Time Position Orientation Groundspeed Altitude Reporting Facility
EDT Latitude Longitude Course Direction KTS MPH feet Rate Location/Type
Tue 02:01:44 PM 40.9000 -74.1500 270° West 265 305 3,400  Level New York TRACON
Tue 02:02:44 PM 40.8667 -74.2333 242° Southwest 258 297 6,100 1,800 Climbing New York TRACON
Tue 02:03:44 PM 40.8167 -74.3167 232° Southwest 282 325 7,000 450 Climbing New York TRACON
Tue 02:04:44 PM 40.7667 -74.4000 232° Southwest 288 331 7,000  Level New York TRACON
Tue 02:05:44 PM 40.7167 -74.4833 232° Southwest 283 326 7,000  Level New York TRACON
Tue 02:07:00 PM 40.6666 -74.5671 232° Southwest  Level FlightAware Approximate
Tue 02:14:00 PM 40.5423 -75.1119 261° West  Level FlightAware Approximate
Tue 02:15:00 PM 40.5350 -75.1947 281° West  Level FlightAware Approximate
Tue 02:16:00 PM 40.5468 -75.2773 281° West  Level FlightAware Approximate
Tue 02:17:00 PM 40.5500 -75.3610 270° West  Level FlightAware Approximate
Tue 02:18:00 PM 40.5540 -75.4445 281° West  Level FlightAware Approximate
Tue 02:19:00 PM 40.5658 -75.5271 281° West  Level FlightAware Approximate
Tue 02:20:00 PM 40.5667 -75.6111 270° West  Level FlightAware Approximate
Tue 02:21:00 PM 40.5716 -75.6735 57° Northeast  Level FlightAware Approximate
Tue 02:22:00 PM 40.5902 -75.5959 66° East  Level FlightAware Approximate
Tue 02:23:00 PM 40.6159 -75.5189 66° East  Level FlightAware Approximate
Tue 02:24:00 PM 40.6456 -75.4444 62° Northeast  Level FlightAware Approximate
Tue 02:25:00 PM 40.6500 -75.4333 62° Northeast  Level FlightAware Approximate
Tue 02:26:00 PM 40.6524 -75.4404 62° Northeast  Level Estimated
Tue 02:27:00 PM 40.6500 -75.4333 62° Northeast  Level FlightAware Approximate
Tue 02:28:00 PM 40.6524 -75.4404 62° Northeast  Level Estimated

Login

Don't have an account? Register now (free) for customized features, flight alerts, and more!